sensor_id;sensor_type;location;lat;lon;timestamp;P1;durP1;ratioP1;P2;durP2;ratioP2
77109;SDS011;66062;52.464;16.922;2023-07-20T00:01:10;8.65;;;3.53;;
77109;SDS011;66062;52.464;16.922;2023-07-20T00:03:35;6.93;;;3.78;;
77109;SDS011;66062;52.464;16.922;2023-07-20T00:06:01;7.82;;;3.25;;
77109;SDS011;66062;52.464;16.922;2023-07-20T00:08:26;6.45;;;3.20;;
77109;SDS011;66062;52.464;16.922;2023-07-20T00:10:51;9.23;;;3.13;;
77109;SDS011;66062;52.464;16.922;2023-07-20T00:13:17;8.20;;;3.33;;
77109;SDS011;66062;52.464;16.922;2023-07-20T00:15:44;6.95;;;3.60;;
77109;SDS011;66062;52.464;16.922;2023-07-20T00:18:09;6.85;;;3.50;;
77109;SDS011;66062;52.464;16.922;2023-07-20T00:20:34;7.70;;;4.25;;
77109;SDS011;66062;52.464;16.922;2023-07-20T00:23:00;5.63;;;3.38;;
77109;SDS011;66062;52.464;16.922;2023-07-20T00:25:25;7.38;;;4.00;;
77109;SDS011;66062;52.464;16.922;2023-07-20T00:27:51;10.90;;;4.22;;
77109;SDS011;66062;52.464;16.922;2023-07-20T00:30:16;8.60;;;4.13;;
77109;SDS011;66062;52.464;16.922;2023-07-20T00:32:42;6.85;;;3.67;;
77109;SDS011;66062;52.464;16.922;2023-07-20T00:35:08;7.03;;;3.50;;
77109;SDS011;66062;52.464;16.922;2023-07-20T00:37:34;6.45;;;3.75;;
77109;SDS011;66062;52.464;16.922;2023-07-20T00:39:59;7.25;;;3.42;;
77109;SDS011;66062;52.464;16.922;2023-07-20T00:42:24;5.28;;;3.60;;
77109;SDS011;66062;52.464;16.922;2023-07-20T00:44:50;6.68;;;3.55;;
77109;SDS011;66062;52.464;16.922;2023-07-20T00:47:15;5.38;;;3.22;;
77109;SDS011;66062;52.464;16.922;2023-07-20T00:49:41;7.50;;;3.55;;
77109;SDS011;66062;52.464;16.922;2023-07-20T00:52:06;5.68;;;3.50;;
77109;SDS011;66062;52.464;16.922;2023-07-20T00:54:33;8.43;;;4.00;;
77109;SDS011;66062;52.464;16.922;2023-07-20T00:56:59;9.25;;;3.92;;
77109;SDS011;66062;52.464;16.922;2023-07-20T00:59:26;7.00;;;4.03;;
77109;SDS011;66062;52.464;16.922;2023-07-20T01:01:52;9.32;;;4.45;;
77109;SDS011;66062;52.464;16.922;2023-07-20T01:04:17;9.45;;;4.88;;
77109;SDS011;66062;52.464;16.922;2023-07-20T01:09:19;12.48;;;5.82;;
77109;SDS011;66062;52.464;16.922;2023-07-20T01:12:08;10.88;;;5.30;;
77109;SDS011;66062;52.464;16.922;2023-07-20T01:14:38;9.48;;;5.20;;
77109;SDS011;66062;52.464;16.922;2023-07-20T01:17:04;12.00;;;5.07;;
77109;SDS011;66062;52.464;16.922;2023-07-20T01:19:29;7.97;;;4.75;;
77109;SDS011;66062;52.464;16.922;2023-07-20T01:21:55;10.10;;;5.18;;
77109;SDS011;66062;52.464;16.922;2023-07-20T01:27:23;11.45;;;5.05;;
77109;SDS011;66062;52.464;16.922;2023-07-20T01:32:49;10.07;;;5.13;;
77109;SDS011;66062;52.464;16.922;2023-07-20T01:35:15;11.52;;;5.13;;
77109;SDS011;66062;52.464;16.922;2023-07-20T01:37:43;10.85;;;4.68;;
77109;SDS011;66062;52.464;16.922;2023-07-20T01:40:11;8.55;;;4.95;;
77109;SDS011;66062;52.464;16.922;2023-07-20T01:42:43;9.15;;;5.63;;
77109;SDS011;66062;52.464;16.922;2023-07-20T01:45:10;10.60;;;5.40;;
77109;SDS011;66062;52.464;16.922;2023-07-20T01:47:35;9.38;;;5.65;;
77109;SDS011;66062;52.464;16.922;2023-07-20T01:50:01;8.95;;;5.75;;
77109;SDS011;66062;52.464;16.922;2023-07-20T01:52:26;12.65;;;5.72;;
77109;SDS011;66062;52.464;16.922;2023-07-20T01:54:51;9.30;;;5.13;;
77109;SDS011;66062;52.464;16.922;2023-07-20T01:57:17;12.73;;;5.45;;
77109;SDS011;66062;52.464;16.922;2023-07-20T01:59:42;8.68;;;5.35;;
77109;SDS011;66062;52.464;16.922;2023-07-20T02:02:08;11.25;;;5.40;;
77109;SDS011;66062;52.464;16.922;2023-07-20T02:04:33;11.75;;;5.18;;
77109;SDS011;66062;52.464;16.922;2023-07-20T02:06:58;9.60;;;6.00;;
77109;SDS011;66062;52.464;16.922;2023-07-20T02:09:24;7.70;;;5.40;;
77109;SDS011;66062;52.464;16.922;2023-07-20T02:11:49;11.02;;;5.55;;
77109;SDS011;66062;52.464;16.922;2023-07-20T02:14:15;7.45;;;5.43;;
77109;SDS011;66062;52.464;16.922;2023-07-20T02:16:40;8.60;;;4.88;;
77109;SDS011;66062;52.464;16.922;2023-07-20T02:19:06;11.10;;;5.68;;
77109;SDS011;66062;52.464;16.922;2023-07-20T02:21:32;16.88;;;7.43;;
77109;SDS011;66062;52.464;16.922;2023-07-20T02:23:57;10.75;;;6.43;;
77109;SDS011;66062;52.464;16.922;2023-07-20T02:26:23;9.45;;;5.75;;
77109;SDS011;66062;52.464;16.922;2023-07-20T02:28:48;9.63;;;6.13;;
77109;SDS011;66062;52.464;16.922;2023-07-20T02:31:14;9.65;;;5.45;;
77109;SDS011;66062;52.464;16.922;2023-07-20T02:33:39;8.73;;;6.30;;
77109;SDS011;66062;52.464;16.922;2023-07-20T02:36:04;12.05;;;6.13;;
77109;SDS011;66062;52.464;16.922;2023-07-20T02:38:30;9.45;;;6.47;;
77109;SDS011;66062;52.464;16.922;2023-07-20T02:40:55;8.93;;;6.15;;
77109;SDS011;66062;52.464;16.922;2023-07-20T02:43:20;11.77;;;6.43;;
77109;SDS011;66062;52.464;16.922;2023-07-20T02:45:46;8.95;;;5.50;;
77109;SDS011;66062;52.464;16.922;2023-07-20T02:48:11;13.43;;;6.50;;
77109;SDS011;66062;52.464;16.922;2023-07-20T02:50:37;9.98;;;6.97;;
77109;SDS011;66062;52.464;16.922;2023-07-20T02:53:02;9.05;;;6.18;;
77109;SDS011;66062;52.464;16.922;2023-07-20T02:55:27;9.75;;;7.07;;
77109;SDS011;66062;52.464;16.922;2023-07-20T02:57:53;9.93;;;6.55;;
77109;SDS011;66062;52.464;16.922;2023-07-20T03:00:18;15.25;;;7.90;;
77109;SDS011;66062;52.464;16.922;2023-07-20T03:02:48;10.38;;;6.40;;
77109;SDS011;66062;52.464;16.922;2023-07-20T03:05:14;9.10;;;6.05;;
77109;SDS011;66062;52.464;16.922;2023-07-20T03:07:41;11.25;;;6.13;;
77109;SDS011;66062;52.464;16.922;2023-07-20T03:10:09;9.23;;;6.07;;
77109;SDS011;66062;52.464;16.922;2023-07-20T03:12:35;9.13;;;5.95;;
77109;SDS011;66062;52.464;16.922;2023-07-20T03:15:01;10.93;;;6.65;;
77109;SDS011;66062;52.464;16.922;2023-07-20T03:17:29;9.88;;;5.90;;
77109;SDS011;66062;52.464;16.922;2023-07-20T03:19:54;9.15;;;6.43;;
77109;SDS011;66062;52.464;16.922;2023-07-20T03:22:19;10.30;;;5.85;;
77109;SDS011;66062;52.464;16.922;2023-07-20T03:24:46;7.97;;;5.70;;
77109;SDS011;66062;52.464;16.922;2023-07-20T03:27:12;10.27;;;5.90;;
77109;SDS011;66062;52.464;16.922;2023-07-20T03:29:37;11.00;;;6.13;;
77109;SDS011;66062;52.464;16.922;2023-07-20T03:32:03;10.93;;;6.50;;
77109;SDS011;66062;52.464;16.922;2023-07-20T03:34:28;10.38;;;6.47;;
77109;SDS011;66062;52.464;16.922;2023-07-20T03:36:54;8.45;;;6.63;;
77109;SDS011;66062;52.464;16.922;2023-07-20T03:39:19;9.55;;;6.53;;
77109;SDS011;66062;52.464;16.922;2023-07-20T03:41:44;11.38;;;6.90;;
77109;SDS011;66062;52.464;16.922;2023-07-20T03:44:10;10.73;;;6.45;;
77109;SDS011;66062;52.464;16.922;2023-07-20T03:46:35;10.95;;;6.57;;
77109;SDS011;66062;52.464;16.922;2023-07-20T03:49:01;9.57;;;6.22;;
77109;SDS011;66062;52.464;16.922;2023-07-20T03:51:26;9.65;;;6.10;;
77109;SDS011;66062;52.464;16.922;2023-07-20T03:53:51;13.63;;;6.63;;
77109;SDS011;66062;52.464;16.922;2023-07-20T03:56:17;10.02;;;6.00;;
77109;SDS011;66062;52.464;16.922;2023-07-20T03:58:42;10.77;;;6.32;;
77109;SDS011;66062;52.464;16.922;2023-07-20T04:01:08;10.45;;;6.18;;
77109;SDS011;66062;52.464;16.922;2023-07-20T04:03:34;12.60;;;7.72;;
77109;SDS011;66062;52.464;16.922;2023-07-20T04:06:00;9.82;;;6.32;;
77109;SDS011;66062;52.464;16.922;2023-07-20T04:08:26;11.68;;;7.05;;
77109;SDS011;66062;52.464;16.922;2023-07-20T04:10:51;10.55;;;5.43;;
77109;SDS011;66062;52.464;16.922;2023-07-20T04:13:17;9.00;;;6.00;;
77109;SDS011;66062;52.464;16.922;2023-07-20T04:15:42;11.23;;;6.30;;
77109;SDS011;66062;52.464;16.922;2023-07-20T04:18:08;11.25;;;5.32;;
77109;SDS011;66062;52.464;16.922;2023-07-20T04:20:33;8.40;;;5.57;;
77109;SDS011;66062;52.464;16.922;2023-07-20T04:22:59;7.07;;;5.20;;
77109;SDS011;66062;52.464;16.922;2023-07-20T04:25:24;8.50;;;5.85;;
77109;SDS011;66062;52.464;16.922;2023-07-20T04:27:49;6.70;;;5.10;;
77109;SDS011;66062;52.464;16.922;2023-07-20T04:30:17;10.95;;;5.60;;
77109;SDS011;66062;52.464;16.922;2023-07-20T04:32:45;13.23;;;6.32;;
77109;SDS011;66062;52.464;16.922;2023-07-20T04:35:16;12.05;;;6.00;;
77109;SDS011;66062;52.464;16.922;2023-07-20T04:37:42;11.23;;;5.95;;
77109;SDS011;66062;52.464;16.922;2023-07-20T04:40:11;14.20;;;6.00;;
77109;SDS011;66062;52.464;16.922;2023-07-20T04:42:40;12.10;;;5.75;;
77109;SDS011;66062;52.464;16.922;2023-07-20T04:47:33;17.13;;;5.97;;
77109;SDS011;66062;52.464;16.922;2023-07-20T04:49:58;9.25;;;5.18;;
77109;SDS011;66062;52.464;16.922;2023-07-20T04:52:23;10.02;;;5.85;;
77109;SDS011;66062;52.464;16.922;2023-07-20T04:54:49;9.27;;;4.88;;
77109;SDS011;66062;52.464;16.922;2023-07-20T04:57:14;9.75;;;5.30;;
77109;SDS011;66062;52.464;16.922;2023-07-20T04:59:39;10.60;;;4.82;;
77109;SDS011;66062;52.464;16.922;2023-07-20T05:02:05;11.77;;;5.72;;
77109;SDS011;66062;52.464;16.922;2023-07-20T05:04:30;11.27;;;5.30;;
77109;SDS011;66062;52.464;16.922;2023-07-20T05:06:56;8.65;;;4.95;;
77109;SDS011;66062;52.464;16.922;2023-07-20T05:09:21;10.30;;;4.65;;
77109;SDS011;66062;52.464;16.922;2023-07-20T05:11:48;9.65;;;5.03;;
77109;SDS011;66062;52.464;16.922;2023-07-20T05:19:04;6.07;;;3.80;;
77109;SDS011;66062;52.464;16.922;2023-07-20T05:21:29;10.85;;;4.32;;
77109;SDS011;66062;52.464;16.922;2023-07-20T05:23:55;7.78;;;4.65;;
77109;SDS011;66062;52.464;16.922;2023-07-20T05:26:20;11.23;;;5.40;;
77109;SDS011;66062;52.464;16.922;2023-07-20T05:28:45;7.80;;;4.30;;
77109;SDS011;66062;52.464;16.922;2023-07-20T05:31:11;11.82;;;4.75;;
77109;SDS011;66062;52.464;16.922;2023-07-20T05:33:36;8.20;;;4.53;;
77109;SDS011;66062;52.464;16.922;2023-07-20T05:36:01;12.40;;;4.57;;
77109;SDS011;66062;52.464;16.922;2023-07-20T05:38:27;6.18;;;3.92;;
77109;SDS011;66062;52.464;16.922;2023-07-20T05:40:52;6.30;;;4.30;;
77109;SDS011;66062;52.464;16.922;2023-07-20T05:43:24;5.13;;;3.58;;
77109;SDS011;66062;52.464;16.922;2023-07-20T05:45:49;7.32;;;3.55;;
77109;SDS011;66062;52.464;16.922;2023-07-20T05:48:15;7.38;;;3.97;;
77109;SDS011;66062;52.464;16.922;2023-07-20T05:50:42;5.30;;;3.67;;
77109;SDS011;66062;52.464;16.922;2023-07-20T05:53:12;6.55;;;4.07;;
77109;SDS011;66062;52.464;16.922;2023-07-20T05:55:37;5.70;;;3.80;;
77109;SDS011;66062;52.464;16.922;2023-07-20T05:58:04;6.72;;;3.58;;
77109;SDS011;66062;52.464;16.922;2023-07-20T06:00:31;5.68;;;3.80;;
77109;SDS011;66062;52.464;16.922;2023-07-20T06:02:56;9.95;;;4.13;;
77109;SDS011;66062;52.464;16.922;2023-07-20T06:05:22;6.68;;;3.47;;
77109;SDS011;66062;52.464;16.922;2023-07-20T06:07:49;6.07;;;3.47;;
77109;SDS011;66062;52.464;16.922;2023-07-20T06:10:15;10.10;;;3.08;;
77109;SDS011;66062;52.464;16.922;2023-07-20T06:12:41;6.28;;;3.13;;
77109;SDS011;66062;52.464;16.922;2023-07-20T06:15:12;5.65;;;3.33;;
77109;SDS011;66062;52.464;16.922;2023-07-20T06:17:50;4.85;;;2.70;;
77109;SDS011;66062;52.464;16.922;2023-07-20T06:20:16;5.03;;;3.45;;
77109;SDS011;66062;52.464;16.922;2023-07-20T06:22:41;5.90;;;2.65;;
77109;SDS011;66062;52.464;16.922;2023-07-20T06:25:07;6.78;;;3.13;;
77109;SDS011;66062;52.464;16.922;2023-07-20T06:27:32;4.88;;;2.67;;
77109;SDS011;66062;52.464;16.922;2023-07-20T06:29:58;4.68;;;2.47;;
77109;SDS011;66062;52.464;16.922;2023-07-20T06:32:24;6.05;;;1.92;;
77109;SDS011;66062;52.464;16.922;2023-07-20T06:34:49;7.28;;;2.08;;
77109;SDS011;66062;52.464;16.922;2023-07-20T06:37:14;3.65;;;2.00;;
77109;SDS011;66062;52.464;16.922;2023-07-20T06:39:40;4.55;;;2.03;;
77109;SDS011;66062;52.464;16.922;2023-07-20T06:42:05;6.53;;;1.92;;
77109;SDS011;66062;52.464;16.922;2023-07-20T06:44:31;4.80;;;1.83;;
77109;SDS011;66062;52.464;16.922;2023-07-20T06:46:56;4.22;;;1.75;;
77109;SDS011;66062;52.464;16.922;2023-07-20T06:49:28;5.07;;;1.73;;
77109;SDS011;66062;52.464;16.922;2023-07-20T06:51:54;2.88;;;1.55;;
77109;SDS011;66062;52.464;16.922;2023-07-20T06:54:19;4.68;;;1.38;;
77109;SDS011;66062;52.464;16.922;2023-07-20T06:56:45;5.13;;;1.80;;
77109;SDS011;66062;52.464;16.922;2023-07-20T06:59:11;3.53;;;1.48;;
77109;SDS011;66062;52.464;16.922;2023-07-20T07:01:36;4.25;;;1.33;;
77109;SDS011;66062;52.464;16.922;2023-07-20T07:04:01;6.03;;;1.67;;
77109;SDS011;66062;52.464;16.922;2023-07-20T07:06:27;3.15;;;1.38;;
77109;SDS011;66062;52.464;16.922;2023-07-20T07:08:53;4.32;;;1.23;;
77109;SDS011;66062;52.464;16.922;2023-07-20T07:11:18;3.47;;;1.52;;
77109;SDS011;66062;52.464;16.922;2023-07-20T07:13:45;5.03;;;1.52;;
77109;SDS011;66062;52.464;16.922;2023-07-20T07:16:13;4.00;;;1.83;;
77109;SDS011;66062;52.464;16.922;2023-07-20T07:18:43;2.33;;;1.42;;
77109;SDS011;66062;52.464;16.922;2023-07-20T07:21:09;3.60;;;1.40;;
77109;SDS011;66062;52.464;16.922;2023-07-20T07:23:35;2.67;;;1.27;;
77109;SDS011;66062;52.464;16.922;2023-07-20T07:26:00;4.18;;;1.33;;
77109;SDS011;66062;52.464;16.922;2023-07-20T07:28:28;6.38;;;1.45;;
77109;SDS011;66062;52.464;16.922;2023-07-20T07:30:54;4.60;;;1.52;;
77109;SDS011;66062;52.464;16.922;2023-07-20T07:33:20;5.18;;;1.55;;
77109;SDS011;66062;52.464;16.922;2023-07-20T07:35:45;5.93;;;1.80;;
77109;SDS011;66062;52.464;16.922;2023-07-20T07:38:11;4.30;;;1.13;;
77109;SDS011;66062;52.464;16.922;2023-07-20T07:40:36;4.40;;;2.20;;
77109;SDS011;66062;52.464;16.922;2023-07-20T07:43:02;3.65;;;1.73;;
77109;SDS011;66062;52.464;16.922;2023-07-20T07:45:27;3.58;;;1.45;;
77109;SDS011;66062;52.464;16.922;2023-07-20T07:47:52;2.97;;;1.48;;
77109;SDS011;66062;52.464;16.922;2023-07-20T07:50:18;3.53;;;1.40;;
77109;SDS011;66062;52.464;16.922;2023-07-20T07:52:43;4.05;;;1.50;;
77109;SDS011;66062;52.464;16.922;2023-07-20T07:55:09;5.25;;;2.00;;
77109;SDS011;66062;52.464;16.922;2023-07-20T07:57:34;4.97;;;1.80;;
77109;SDS011;66062;52.464;16.922;2023-07-20T07:59:59;6.53;;;1.83;;
77109;SDS011;66062;52.464;16.922;2023-07-20T08:02:25;2.97;;;1.48;;
77109;SDS011;66062;52.464;16.922;2023-07-20T08:04:51;3.97;;;1.30;;
77109;SDS011;66062;52.464;16.922;2023-07-20T08:07:17;3.97;;;0.90;;
77109;SDS011;66062;52.464;16.922;2023-07-20T08:09:42;4.20;;;1.25;;
77109;SDS011;66062;52.464;16.922;2023-07-20T08:12:08;2.60;;;1.13;;
77109;SDS011;66062;52.464;16.922;2023-07-20T08:14:33;3.83;;;1.33;;
77109;SDS011;66062;52.464;16.922;2023-07-20T08:16:59;2.90;;;1.25;;
77109;SDS011;66062;52.464;16.922;2023-07-20T08:19:24;3.08;;;1.13;;
77109;SDS011;66062;52.464;16.922;2023-07-20T08:21:50;2.25;;;1.10;;
77109;SDS011;66062;52.464;16.922;2023-07-20T08:24:15;4.80;;;1.42;;
77109;SDS011;66062;52.464;16.922;2023-07-20T08:26:40;5.03;;;1.27;;
77109;SDS011;66062;52.464;16.922;2023-07-20T08:29:06;5.57;;;1.45;;
77109;SDS011;66062;52.464;16.922;2023-07-20T08:31:32;5.40;;;1.17;;
77109;SDS011;66062;52.464;16.922;2023-07-20T08:33:57;4.80;;;1.20;;
77109;SDS011;66062;52.464;16.922;2023-07-20T08:36:22;6.03;;;1.48;;
77109;SDS011;66062;52.464;16.922;2023-07-20T08:38:48;3.08;;;1.45;;
77109;SDS011;66062;52.464;16.922;2023-07-20T08:41:14;3.17;;;1.45;;
77109;SDS011;66062;52.464;16.922;2023-07-20T08:43:40;4.38;;;1.45;;
77109;SDS011;66062;52.464;16.922;2023-07-20T08:46:11;6.05;;;1.40;;
77109;SDS011;66062;52.464;16.922;2023-07-20T08:48:38;3.50;;;1.45;;
77109;SDS011;66062;52.464;16.922;2023-07-20T08:51:04;10.82;;;2.08;;
77109;SDS011;66062;52.464;16.922;2023-07-20T08:53:29;4.28;;;1.77;;
77109;SDS011;66062;52.464;16.922;2023-07-20T08:55:57;4.80;;;2.35;;
77109;SDS011;66062;52.464;16.922;2023-07-20T08:58:25;5.53;;;2.55;;
77109;SDS011;66062;52.464;16.922;2023-07-20T09:00:51;7.60;;;3.00;;
77109;SDS011;66062;52.464;16.922;2023-07-20T09:05:44;5.18;;;3.05;;
77109;SDS011;66062;52.464;16.922;2023-07-20T09:08:10;5.55;;;2.70;;
77109;SDS011;66062;52.464;16.922;2023-07-20T09:10:36;5.28;;;2.72;;
77109;SDS011;66062;52.464;16.922;2023-07-20T09:13:01;5.05;;;2.13;;
77109;SDS011;66062;52.464;16.922;2023-07-20T09:15:28;6.13;;;2.53;;
77109;SDS011;66062;52.464;16.922;2023-07-20T09:17:54;5.05;;;2.25;;
77109;SDS011;66062;52.464;16.922;2023-07-20T09:20:20;5.53;;;2.60;;
77109;SDS011;66062;52.464;16.922;2023-07-20T09:22:46;6.45;;;2.22;;
77109;SDS011;66062;52.464;16.922;2023-07-20T09:25:12;5.97;;;3.17;;
77109;SDS011;66062;52.464;16.922;2023-07-20T09:27:39;6.38;;;3.03;;
77109;SDS011;66062;52.464;16.922;2023-07-20T09:30:08;7.47;;;3.50;;
77109;SDS011;66062;52.464;16.922;2023-07-20T09:32:38;5.90;;;3.03;;
77109;SDS011;66062;52.464;16.922;2023-07-20T09:35:05;5.70;;;3.25;;
77109;SDS011;66062;52.464;16.922;2023-07-20T09:37:32;4.28;;;1.83;;
77109;SDS011;66062;52.464;16.922;2023-07-20T09:39:58;5.70;;;1.25;;
77109;SDS011;66062;52.464;16.922;2023-07-20T09:42:24;3.45;;;1.27;;
77109;SDS011;66062;52.464;16.922;2023-07-20T09:44:51;2.63;;;1.25;;
77109;SDS011;66062;52.464;16.922;2023-07-20T09:47:24;4.15;;;1.23;;
77109;SDS011;66062;52.464;16.922;2023-07-20T09:49:57;3.28;;;0.93;;
77109;SDS011;66062;52.464;16.922;2023-07-20T09:52:24;5.88;;;1.33;;
77109;SDS011;66062;52.464;16.922;2023-07-20T09:54:50;6.28;;;1.13;;
77109;SDS011;66062;52.464;16.922;2023-07-20T09:57:16;2.95;;;1.00;;
77109;SDS011;66062;52.464;16.922;2023-07-20T10:02:11;3.30;;;1.80;;
77109;SDS011;66062;52.464;16.922;2023-07-20T10:04:44;3.03;;;1.23;;
77109;SDS011;66062;52.464;16.922;2023-07-20T10:09:37;2.95;;;1.30;;
77109;SDS011;66062;52.464;16.922;2023-07-20T10:12:05;4.68;;;1.30;;
77109;SDS011;66062;52.464;16.922;2023-07-20T10:14:32;6.18;;;1.10;;
77109;SDS011;66062;52.464;16.922;2023-07-20T10:17:05;4.57;;;1.15;;
77109;SDS011;66062;52.464;16.922;2023-07-20T10:19:47;3.58;;;1.17;;
77109;SDS011;66062;52.464;16.922;2023-07-20T10:22:23;3.72;;;1.05;;
77109;SDS011;66062;52.464;16.922;2023-07-20T10:24:51;4.55;;;1.00;;
77109;SDS011;66062;52.464;16.922;2023-07-20T10:27:19;3.22;;;1.02;;
77109;SDS011;66062;52.464;16.922;2023-07-20T10:29:45;2.63;;;0.90;;
77109;SDS011;66062;52.464;16.922;2023-07-20T10:34:37;2.67;;;1.17;;
77109;SDS011;66062;52.464;16.922;2023-07-20T10:37:03;2.58;;;1.23;;
77109;SDS011;66062;52.464;16.922;2023-07-20T10:39:30;3.67;;;1.48;;
77109;SDS011;66062;52.464;16.922;2023-07-20T10:44:27;2.10;;;1.23;;
77109;SDS011;66062;52.464;16.922;2023-07-20T10:46:52;4.18;;;1.70;;
77109;SDS011;66062;52.464;16.922;2023-07-20T10:49:25;5.35;;;1.80;;
77109;SDS011;66062;52.464;16.922;2023-07-20T10:52:13;2.65;;;1.17;;
77109;SDS011;66062;52.464;16.922;2023-07-20T10:54:46;2.47;;;1.40;;
77109;SDS011;66062;52.464;16.922;2023-07-20T10:57:23;4.10;;;1.08;;
77109;SDS011;66062;52.464;16.922;2023-07-20T10:59:53;2.38;;;1.13;;
77109;SDS011;66062;52.464;16.922;2023-07-20T11:02:41;2.00;;;0.82;;
77109;SDS011;66062;52.464;16.922;2023-07-20T11:05:07;2.88;;;1.05;;
77109;SDS011;66062;52.464;16.922;2023-07-20T11:07:36;2.35;;;1.05;;
77109;SDS011;66062;52.464;16.922;2023-07-20T11:10:12;1.95;;;0.80;;
77109;SDS011;66062;52.464;16.922;2023-07-20T11:12:40;2.67;;;0.73;;
77109;SDS011;66062;52.464;16.922;2023-07-20T11:15:05;2.85;;;0.63;;
77109;SDS011;66062;52.464;16.922;2023-07-20T11:17:31;2.22;;;0.82;;
77109;SDS011;66062;52.464;16.922;2023-07-20T11:19:58;2.08;;;1.13;;
77109;SDS011;66062;52.464;16.922;2023-07-20T11:22:28;1.65;;;0.90;;
77109;SDS011;66062;52.464;16.922;2023-07-20T11:24:56;3.08;;;0.60;;
77109;SDS011;66062;52.464;16.922;2023-07-20T11:27:22;2.53;;;1.25;;
77109;SDS011;66062;52.464;16.922;2023-07-20T11:29:47;1.02;;;0.40;;
77109;SDS011;66062;52.464;16.922;2023-07-20T11:32:19;1.83;;;0.80;;
77109;SDS011;66062;52.464;16.922;2023-07-20T11:34:47;1.20;;;0.70;;
77109;SDS011;66062;52.464;16.922;2023-07-20T11:37:12;0.90;;;0.50;;
77109;SDS011;66062;52.464;16.922;2023-07-20T11:39:38;1.52;;;0.57;;
77109;SDS011;66062;52.464;16.922;2023-07-20T11:44:30;3.88;;;0.43;;
77109;SDS011;66062;52.464;16.922;2023-07-20T11:49:35;1.92;;;0.50;;
77109;SDS011;66062;52.464;16.922;2023-07-20T11:52:02;2.70;;;1.35;;
77109;SDS011;66062;52.464;16.922;2023-07-20T11:54:29;1.58;;;0.63;;
77109;SDS011;66062;52.464;16.922;2023-07-20T11:56:55;2.97;;;0.73;;
77109;SDS011;66062;52.464;16.922;2023-07-20T11:59:23;1.40;;;0.52;;
77109;SDS011;66062;52.464;16.922;2023-07-20T12:01:48;1.85;;;0.63;;
77109;SDS011;66062;52.464;16.922;2023-07-20T12:04:14;1.48;;;0.30;;
77109;SDS011;66062;52.464;16.922;2023-07-20T12:06:40;2.22;;;0.45;;
77109;SDS011;66062;52.464;16.922;2023-07-20T12:09:05;0.70;;;0.30;;
77109;SDS011;66062;52.464;16.922;2023-07-20T12:11:34;1.17;;;0.30;;
77109;SDS011;66062;52.464;16.922;2023-07-20T12:14:01;2.25;;;0.63;;
77109;SDS011;66062;52.464;16.922;2023-07-20T12:16:28;1.35;;;0.68;;
77109;SDS011;66062;52.464;16.922;2023-07-20T12:19:08;0.90;;;0.43;;
77109;SDS011;66062;52.464;16.922;2023-07-20T12:21:38;1.52;;;0.52;;
77109;SDS011;66062;52.464;16.922;2023-07-20T12:24:06;1.08;;;0.55;;
77109;SDS011;66062;52.464;16.922;2023-07-20T12:26:34;1.92;;;0.52;;
77109;SDS011;66062;52.464;16.922;2023-07-20T12:29:00;2.55;;;0.47;;
77109;SDS011;66062;52.464;16.922;2023-07-20T12:31:27;1.15;;;0.50;;
77109;SDS011;66062;52.464;16.922;2023-07-20T12:33:53;1.98;;;0.50;;
77109;SDS011;66062;52.464;16.922;2023-07-20T12:36:22;2.97;;;0.43;;
77109;SDS011;66062;52.464;16.922;2023-07-20T12:38:48;1.63;;;0.52;;
77109;SDS011;66062;52.464;16.922;2023-07-20T12:41:14;1.63;;;0.63;;
77109;SDS011;66062;52.464;16.922;2023-07-20T12:43:43;1.48;;;0.43;;
77109;SDS011;66062;52.464;16.922;2023-07-20T12:46:09;2.95;;;0.30;;
77109;SDS011;66062;52.464;16.922;2023-07-20T12:48:37;1.83;;;0.75;;
77109;SDS011;66062;52.464;16.922;2023-07-20T12:51:03;2.13;;;0.82;;
77109;SDS011;66062;52.464;16.922;2023-07-20T12:53:29;3.47;;;0.30;;
77109;SDS011;66062;52.464;16.922;2023-07-20T12:55:55;2.90;;;0.65;;
77109;SDS011;66062;52.464;16.922;2023-07-20T12:58:21;0.82;;;0.43;;
77109;SDS011;66062;52.464;16.922;2023-07-20T13:00:46;2.22;;;1.00;;
77109;SDS011;66062;52.464;16.922;2023-07-20T13:03:12;1.90;;;0.40;;
77109;SDS011;66062;52.464;16.922;2023-07-20T13:05:37;2.95;;;0.88;;
77109;SDS011;66062;52.464;16.922;2023-07-20T13:08:02;1.17;;;0.52;;
77109;SDS011;66062;52.464;16.922;2023-07-20T13:10:28;3.03;;;0.52;;
77109;SDS011;66062;52.464;16.922;2023-07-20T13:12:54;1.10;;;0.60;;
77109;SDS011;66062;52.464;16.922;2023-07-20T13:15:19;1.00;;;0.52;;
77109;SDS011;66062;52.464;16.922;2023-07-20T13:17:45;1.35;;;0.52;;
77109;SDS011;66062;52.464;16.922;2023-07-20T13:20:11;1.00;;;0.60;;
77109;SDS011;66062;52.464;16.922;2023-07-20T13:22:40;1.17;;;0.70;;
77109;SDS011;66062;52.464;16.922;2023-07-20T13:25:06;1.80;;;0.80;;
77109;SDS011;66062;52.464;16.922;2023-07-20T13:27:32;1.83;;;0.95;;
77109;SDS011;66062;52.464;16.922;2023-07-20T13:32:25;1.63;;;0.73;;
77109;SDS011;66062;52.464;16.922;2023-07-20T13:34:51;0.90;;;0.50;;
77109;SDS011;66062;52.464;16.922;2023-07-20T13:37:17;2.05;;;0.52;;
77109;SDS011;66062;52.464;16.922;2023-07-20T13:39:42;3.75;;;1.05;;
77109;SDS011;66062;52.464;16.922;2023-07-20T13:44:35;2.95;;;0.52;;
77109;SDS011;66062;52.464;16.922;2023-07-20T13:47:02;1.58;;;0.70;;
77109;SDS011;66062;52.464;16.922;2023-07-20T13:49:28;1.30;;;0.80;;
77109;SDS011;66062;52.464;16.922;2023-07-20T13:51:54;1.70;;;0.52;;
77109;SDS011;66062;52.464;16.922;2023-07-20T13:54:20;1.20;;;0.65;;
77109;SDS011;66062;52.464;16.922;2023-07-20T13:59:18;2.30;;;0.73;;
77109;SDS011;66062;52.464;16.922;2023-07-20T14:01:44;3.58;;;0.65;;
77109;SDS011;66062;52.464;16.922;2023-07-20T14:04:09;1.42;;;0.75;;
77109;SDS011;66062;52.464;16.922;2023-07-20T14:06:35;1.70;;;0.52;;
77109;SDS011;66062;52.464;16.922;2023-07-20T14:09:01;1.42;;;0.65;;
77109;SDS011;66062;52.464;16.922;2023-07-20T14:11:27;1.95;;;0.63;;
77109;SDS011;66062;52.464;16.922;2023-07-20T14:13:52;7.60;;;1.00;;
77109;SDS011;66062;52.464;16.922;2023-07-20T14:16:18;1.42;;;0.63;;
77109;SDS011;66062;52.464;16.922;2023-07-20T14:18:44;1.58;;;0.50;;
77109;SDS011;66062;52.464;16.922;2023-07-20T14:21:14;2.80;;;1.10;;
77109;SDS011;66062;52.464;16.922;2023-07-20T14:26:05;0.98;;;0.45;;
77109;SDS011;66062;52.464;16.922;2023-07-20T14:28:36;4.28;;;0.88;;
77109;SDS011;66062;52.464;16.922;2023-07-20T14:31:03;1.95;;;0.88;;
77109;SDS011;66062;52.464;16.922;2023-07-20T14:33:28;3.83;;;0.88;;
77109;SDS011;66062;52.464;16.922;2023-07-20T14:35:53;8.50;;;0.93;;
77109;SDS011;66062;52.464;16.922;2023-07-20T14:38:19;1.60;;;0.80;;
77109;SDS011;66062;52.464;16.922;2023-07-20T14:40:44;1.08;;;0.57;;
77109;SDS011;66062;52.464;16.922;2023-07-20T14:43:10;2.53;;;0.60;;
77109;SDS011;66062;52.464;16.922;2023-07-20T14:45:36;1.08;;;0.52;;
77109;SDS011;66062;52.464;16.922;2023-07-20T14:48:03;2.80;;;0.30;;
77109;SDS011;66062;52.464;16.922;2023-07-20T14:50:28;0.70;;;0.22;;
77109;SDS011;66062;52.464;16.922;2023-07-20T14:52:54;1.80;;;0.55;;
77109;SDS011;66062;52.464;16.922;2023-07-20T14:55:19;1.20;;;0.40;;
77109;SDS011;66062;52.464;16.922;2023-07-20T14:57:45;0.52;;;0.22;;
77109;SDS011;66062;52.464;16.922;2023-07-20T15:00:10;1.45;;;0.32;;
77109;SDS011;66062;52.464;16.922;2023-07-20T15:02:36;1.02;;;0.55;;
77109;SDS011;66062;52.464;16.922;2023-07-20T15:05:02;1.65;;;0.32;;
77109;SDS011;66062;52.464;16.922;2023-07-20T15:07:31;1.00;;;0.22;;
77109;SDS011;66062;52.464;16.922;2023-07-20T15:09:56;1.05;;;0.20;;
77109;SDS011;66062;52.464;16.922;2023-07-20T15:12:22;3.13;;;0.52;;